Boy River, Minnesota
Current Conditions -  °F | °C
As of 4:36 PM on Monday 24 Nov 2014 (Local Time) from KXVG Reporting Station
Light Snow Light Snow  
Wind Chill:   Ceiling: 2000
Heat Index: 14°   Visibility: 5mi
Dew Point:   Wind: 9mph
Humidity: 79%   Direction: 320°NW
Pressure: 29.71"   Gusts: 22mph
Location:  47.0973°N, 93.9173°W
Report Text: KXVG 242236Z AUTO 32008G19KT 294V354 5SM -SN OVC020 M10/M13 A2971 RMK AO2
Loading
Personal Weather Stations






























Interactive Weather Map New forecast layout! Learn more

10-Day Weather Forecast

Advertisements
Track Severe Weather on mobile